Time;durP1;ratioP1;P1;durP2;ratioP2;P2;SDS_P1;SDS_P2;PMS_P1;PMS_P2;Temp;Humidity;BMP_temperature;BMP_pressure;BME280_temperature;BME280_humidity;BME280_pressure;Samples;Min_cycle;Max_cycle;Signal;HPM_P1;HPM_P2
2021/12/27 00:00:19;;;;;;;2.37;1.60;;;;;;;6.57;100.00;97512.03;5050773;28;20210;-55
2021/12/27 00:02:48;;;;;;;3.40;1.97;;;;;;;6.49;100.00;97500.66;5051560;28;20538;-53
2021/12/27 00:05:15;;;;;;;2.30;1.80;;;;;;;6.46;100.00;97503.53;5051354;28;20187;-57
2021/12/27 00:07:43;;;;;;;6.90;1.73;;;;;;;6.63;100.00;97499.25;5055005;28;20194;-56
2021/12/27 00:10:13;;;;;;;2.60;1.60;;;;;;;6.72;100.00;97502.72;5054680;28;20306;-57
2021/12/27 00:12:41;;;;;;;2.70;1.37;;;;;;;6.86;100.00;97496.13;5055867;28;20194;-58
2021/12/27 00:15:09;;;;;;;1.83;1.33;;;;;;;7.01;100.00;97495.56;5055423;28;20198;-58
2021/12/27 00:17:39;;;;;;;3.37;1.40;;;;;;;7.06;100.00;97501.09;5055251;28;20192;-58
2021/12/27 00:20:08;;;;;;;3.20;1.40;;;;;;;7.15;100.00;97499.34;5054593;28;20187;-58
2021/12/27 00:22:35;;;;;;;2.73;1.33;;;;;;;7.10;100.00;97497.22;5055273;28;20183;-59
2021/12/27 00:25:02;;;;;;;2.33;1.27;;;;;;;7.06;100.00;97499.28;5055095;28;20190;-58
2021/12/27 00:27:31;;;;;;;2.20;1.63;;;;;;;7.06;100.00;97504.50;5055252;28;20649;-59
2021/12/27 00:29:58;;;;;;;2.33;1.47;;;;;;;7.06;100.00;97501.09;5054499;28;20226;-56
2021/12/27 00:32:25;;;;;;;2.17;1.37;;;;;;;7.06;100.00;97506.28;5055002;28;20207;-58
2021/12/27 00:34:52;;;;;;;2.13;1.30;;;;;;;7.05;100.00;97502.06;5055029;28;20199;-57
2021/12/27 00:37:19;;;;;;;3.17;1.30;;;;;;;7.06;100.00;97495.91;5055006;28;20191;-59
2021/12/27 00:39:49;;;;;;;6.00;1.30;;;;;;;7.05;100.00;97496.88;5054405;28;20191;-59
2021/12/27 00:42:16;;;;;;;4.17;1.90;;;;;;;7.00;100.00;97486.94;5054759;28;20207;-59
2021/12/27 00:44:43;;;;;;;3.40;2.07;;;;;;;6.96;100.00;97492.63;5054807;28;20183;-59
2021/12/27 00:47:10;;;;;;;1.77;1.30;;;;;;;6.91;100.00;97488.72;5054903;28;20179;-59
2021/12/27 00:49:36;;;;;;;5.37;1.80;;;;;;;6.87;100.00;97489.19;5052828;28;20218;-58
2021/12/27 00:52:04;;;;;;;3.97;1.67;;;;;;;6.86;100.00;97496.13;5054616;28;20203;-59
2021/12/27 00:54:32;;;;;;;2.97;1.80;;;;;;;6.82;100.00;97489.63;5054733;28;20188;-59
2021/12/27 00:56:59;;;;;;;2.87;1.70;;;;;;;6.79;100.00;97493.38;5054630;28;20183;-59
2021/12/27 00:59:26;;;;;;;2.37;1.63;;;;;;;6.78;100.00;97499.53;5054508;28;20187;-59
2021/12/27 01:01:53;;;;;;;2.57;1.30;;;;;;;6.80;100.00;97494.16;5054137;28;20219;-58
2021/12/27 01:04:20;;;;;;;3.63;1.53;;;;;;;6.78;100.00;97494.34;5054447;28;20267;-59
2021/12/27 01:06:46;;;;;;;2.67;1.57;;;;;;;6.78;100.00;97489.16;5053205;28;20646;-59
2021/12/27 01:09:23;;;;;;;1.93;1.40;;;;;;;6.81;100.00;97500.19;5054341;28;20219;-59
2021/12/27 01:12:10;;;;;;;3.50;1.77;;;;;;;6.81;100.00;97500.97;5053896;28;20260;-59
2021/12/27 01:14:42;;;;;;;2.27;1.70;;;;;;;6.82;100.00;97494.03;5054389;28;20190;-59
2021/12/27 01:17:09;;;;;;;2.93;1.57;;;;;;;6.79;100.00;97482.16;5054034;28;20191;-59
2021/12/27 01:19:36;;;;;;;2.30;1.40;;;;;;;6.76;100.00;97485.06;5053727;28;20184;-59
2021/12/27 01:22:04;;;;;;;2.57;1.67;;;;;;;6.75;100.00;97486.03;5054002;28;20218;-59
2021/12/27 01:24:31;;;;;;;2.97;1.70;;;;;;;6.82;100.00;97499.22;5054269;28;20658;-59
2021/12/27 01:27:01;;;;;;;2.73;1.60;;;;;;;6.77;100.00;97502.25;5054231;28;20190;-59
2021/12/27 01:29:28;;;;;;;3.73;1.40;;;;;;;6.75;100.00;97504.19;5052651;28;20310;-59
2021/12/27 01:31:54;;;;;;;2.07;1.30;;;;;;;6.73;100.00;97504.34;5053549;28;20211;-59
2021/12/27 01:34:26;;;;;;;1.00;0.83;;;;;;;6.75;100.00;97501.59;5054044;28;20198;-58
2021/12/27 01:36:56;;;;;;;3.20;1.50;;;;;;;6.75;100.00;97501.59;5053892;28;20265;-58
2021/12/27 01:39:23;;;;;;;2.57;1.97;;;;;;;6.82;100.00;97491.44;5053915;28;20199;-58
2021/12/27 01:41:50;;;;;;;4.10;2.47;;;;;;;6.79;100.00;97493.38;5053077;28;20203;-56
2021/12/27 01:44:18;;;;;;;5.50;2.93;;;;;;;6.75;100.00;97489.44;5053861;28;20195;-58
2021/12/27 01:46:45;;;;;;;5.43;3.13;;;;;;;6.74;100.00;97487.00;5053668;28;20198;-58
2021/12/27 01:49:12;;;;;;;6.30;2.90;;;;;;;6.76;100.00;97483.31;5053569;28;20210;-58
2021/12/27 01:51:40;;;;;;;3.47;2.30;;;;;;;6.81;100.00;97485.41;5052976;28;20693;-58
2021/12/27 01:54:07;;;;;;;3.83;1.83;;;;;;;6.84;100.00;97486.91;5053540;28;20183;-59
2021/12/27 01:56:34;;;;;;;3.93;2.10;;;;;;;6.83;100.00;97487.88;5053566;28;20631;-58
2021/12/27 01:59:01;;;;;;;4.90;2.00;;;;;;;6.87;100.00;97477.00;5053499;28;20186;-58
2021/12/27 02:01:29;;;;;;;4.00;2.20;;;;;;;6.93;100.00;97478.16;5053089;28;20264;-58
2021/12/27 02:03:57;;;;;;;1.87;1.60;;;;;;;7.01;100.00;97482.59;5053330;28;20181;-58
2021/12/27 02:06:25;;;;;;;4.50;1.53;;;;;;;7.04;100.00;97477.88;5053408;28;20186;-59
2021/12/27 02:08:52;;;;;;;3.17;1.43;;;;;;;7.07;100.00;97479.38;5053194;28;20215;-59
2021/12/27 02:11:20;;;;;;;4.47;1.60;;;;;;;7.04;100.00;97464.09;5052488;28;20219;-58
2021/12/27 02:13:48;;;;;;;2.83;1.67;;;;;;;7.06;100.00;97469.97;5053222;28;20249;-59
2021/12/27 02:16:17;;;;;;;2.77;1.40;;;;;;;7.14;100.00;97464.78;5053042;28;20187;-58
2021/12/27 02:18:45;;;;;;;3.17;1.70;;;;;;;7.10;100.00;97466.06;5053217;28;20563;-59
2021/12/27 02:21:14;;;;;;;3.03;1.50;;;;;;;7.07;100.00;97477.56;5052409;28;20207;-59
2021/12/27 02:23:42;;;;;;;2.77;1.50;;;;;;;7.07;100.00;97467.19;5053013;28;20187;-59
2021/12/27 02:26:10;;;;;;;4.63;1.50;;;;;;;7.05;100.00;97470.94;5053011;28;20183;-59
2021/12/27 02:28:37;;;;;;;2.83;1.20;;;;;;;7.07;100.00;97469.78;5052163;28;20636;-59
2021/12/27 02:31:05;;;;;;;3.30;1.63;;;;;;;7.09;100.00;97469.63;5052048;28;20203;-59
2021/12/27 02:33:37;;;;;;;3.83;1.40;;;;;;;7.13;100.00;97470.13;5052908;28;20187;-58
2021/12/27 02:36:05;;;;;;;3.67;1.60;;;;;;;7.27;100.00;97455.75;5052893;28;20180;-59
2021/12/27 02:38:36;;;;;;;2.60;1.10;;;;;;;7.26;100.00;97460.13;5051404;28;20734;-58
2021/12/27 02:41:04;;;;;;;4.70;1.57;;;;;;;7.30;100.00;97458.81;5052067;28;20215;-58
2021/12/27 02:43:32;;;;;;;2.95;1.80;;;;;;;7.27;100.00;97458.34;5051475;28;20442;-59
2021/12/27 02:46:01;;;;;;;3.20;1.40;;;;;;;7.29;100.00;97453.81;5051552;28;20657;-59
2021/12/27 02:48:31;;;;;;;2.33;1.60;;;;;;;7.29;100.00;97451.22;5052550;28;20199;-57
2021/12/27 02:50:59;;;;;;;4.23;1.63;;;;;;;7.28;100.00;97447.78;5051896;28;20211;-58
2021/12/27 02:53:28;;;;;;;2.60;1.30;;;;;;;7.30;100.00;97445.84;5052491;28;20726;-59
2021/12/27 02:55:58;;;;;;;2.40;1.40;;;;;;;7.33;100.00;97447.31;5052386;28;20712;-58
2021/12/27 02:58:27;;;;;;;2.83;1.37;;;;;;;7.34;100.00;97441.97;5051035;28;20553;-59
2021/12/27 03:00:56;;;;;;;2.50;1.63;;;;;;;7.35;100.00;97441.00;5051721;28;20209;-58
2021/12/27 03:03:23;;;;;;;1.83;1.20;;;;;;;7.38;100.00;97447.66;5052281;28;20198;-58
2021/12/27 03:05:50;;;;;;;3.27;1.40;;;;;;;7.34;100.00;97436.78;5052312;28;20542;-59
2021/12/27 03:08:19;;;;;;;2.77;1.27;;;;;;;7.28;100.00;97442.59;5052238;28;20195;-59
2021/12/27 03:10:49;;;;;;;2.10;1.60;;;;;;;7.21;100.00;97439.00;5051176;28;20219;-58
2021/12/27 03:13:19;;;;;;;2.77;1.67;;;;;;;7.17;100.00;97438.53;5052168;28;20183;-59
2021/12/27 03:15:46;;;;;;;2.13;1.00;;;;;;;7.15;100.00;97437.88;5052102;28;20187;-59
2021/12/27 03:18:13;;;;;;;1.70;1.20;;;;;;;7.16;100.00;97436.06;5052070;28;20565;-58
2021/12/27 03:20:40;;;;;;;1.50;1.03;;;;;;;7.11;100.00;97433.13;5051376;28;20207;-59
2021/12/27 03:23:07;;;;;;;3.53;1.20;;;;;;;7.07;100.00;97425.66;5051602;28;20191;-59
2021/12/27 03:25:34;;;;;;;1.93;1.20;;;;;;;7.03;100.00;97423.56;5051955;28;20210;-59
2021/12/27 03:28:02;;;;;;;2.97;0.93;;;;;;;7.04;100.00;97427.78;5051973;28;20187;-59
2021/12/27 03:30:30;;;;;;;4.30;1.20;;;;;;;7.00;100.00;97423.88;5051130;28;20219;-58
2021/12/27 03:33:00;;;;;;;1.63;1.07;;;;;;;6.97;100.00;97426.78;5051891;28;20665;-58
2021/12/27 03:35:29;;;;;;;2.67;0.97;;;;;;;6.96;100.00;97425.16;5051765;28;20187;-57
2021/12/27 03:37:58;;;;;;;1.23;0.90;;;;;;;6.92;100.00;97422.06;5051862;28;20274;-59
2021/12/27 03:40:26;;;;;;;1.07;0.77;;;;;;;6.90;100.00;97432.59;5050975;28;20204;-59
2021/12/27 03:42:54;;;;;;;1.53;0.83;;;;;;;6.88;100.00;97431.94;5051635;28;20661;-59
2021/12/27 03:45:24;;;;;;;2.80;0.80;;;;;;;6.86;100.00;97430.50;5051552;28;20183;-59
2021/12/27 03:47:52;;;;;;;4.20;1.00;;;;;;;6.84;100.00;97427.25;5051579;28;20195;-58
2021/12/27 03:50:20;;;;;;;2.63;1.13;;;;;;;6.85;100.00;97426.28;5050838;28;20204;-59
2021/12/27 03:52:50;;;;;;;2.40;1.00;;;;;;;6.84;100.00;97422.84;5051592;28;20190;-58
2021/12/27 03:55:16;;;;;;;4.30;1.10;;;;;;;6.85;100.00;97424.47;5051489;28;20665;-58
2021/12/27 03:57:51;;;;;;;6.77;1.20;;;;;;;6.84;100.00;97429.84;5051555;28;20195;-59
2021/12/27 04:00:32;;;;;;;4.40;1.07;;;;;;;6.85;100.00;97421.88;5050914;28;20262;-59
2021/12/27 04:03:02;;;;;;;1.60;0.97;;;;;;;6.88;100.00;97421.56;5051615;28;20240;-59
2021/12/27 04:05:30;;;;;;;1.93;0.90;;;;;;;6.96;100.00;97409.59;5051673;28;20188;-59
2021/12/27 04:08:01;;;;;;;4.17;1.17;;;;;;;6.98;100.00;97415.44;5051506;28;20199;-58
2021/12/27 04:10:29;;;;;;;1.33;1.00;;;;;;;7.00;100.00;97418.69;5050688;28;20604;-56
2021/12/27 04:12:56;;;;;;;2.63;0.90;;;;;;;7.05;100.00;97416.44;5051426;28;20317;-59
2021/12/27 04:15:23;;;;;;;1.40;0.80;;;;;;;7.05;100.00;97413.84;5051427;28;20187;-59
2021/12/27 04:17:51;;;;;;;2.93;0.87;;;;;;;7.08;100.00;97422.09;5051501;28;20253;-59
2021/12/27 04:20:21;;;;;;;1.57;1.10;;;;;;;7.05;100.00;97419.03;5050761;28;20215;-58
2021/12/27 04:22:48;;;;;;;1.30;1.00;;;;;;;7.05;100.00;97414.63;5051545;28;20776;-59
2021/12/27 04:25:17;;;;;;;3.73;1.10;;;;;;;6.99;100.00;97409.28;5051427;28;20199;-59
2021/12/27 04:27:44;;;;;;;1.23;0.80;;;;;;;6.97;100.00;97409.44;5051206;28;20225;-59
2021/12/27 04:30:12;;;;;;;2.93;1.00;;;;;;;6.97;100.00;97403.44;5050478;28;20215;-58
2021/12/27 04:32:39;;;;;;;1.40;0.83;;;;;;;6.96;100.00;97397.41;5051347;28;20240;-58
2021/12/27 04:35:07;;;;;;;3.10;0.70;;;;;;;6.97;100.00;97398.25;5051332;28;20580;-59
2021/12/27 04:37:36;;;;;;;1.30;0.70;;;;;;;6.94;100.00;97395.00;5051644;28;20514;-58
2021/12/27 04:40:06;;;;;;;2.30;1.20;;;;;;;6.93;100.00;97398.56;5050549;28;20731;-58
2021/12/27 04:42:33;;;;;;;2.20;1.20;;;;;;;6.90;100.00;97400.66;5051464;28;20195;-57
2021/12/27 04:45:01;;;;;;;3.43;0.90;;;;;;;6.88;100.00;97403.41;5051194;28;20194;-59
2021/12/27 04:47:27;;;;;;;1.60;0.90;;;;;;;6.90;100.00;97396.28;5051347;28;20194;-58
2021/12/27 04:49:54;;;;;;;2.40;0.97;;;;;;;6.92;100.00;97396.94;5050588;28;20214;-58
2021/12/27 04:52:21;;;;;;;0.87;0.50;;;;;;;6.97;100.00;97387.88;5052236;28;20707;-57
2021/12/27 04:54:50;;;;;;;1.17;0.63;;;;;;;6.98;100.00;97384.31;5054792;28;20673;-58
2021/12/27 04:57:16;;;;;;;2.27;0.67;;;;;;;7.04;100.00;97388.88;5054706;28;20191;-57
2021/12/27 04:59:43;;;;;;;1.00;0.37;;;;;;;7.11;100.00;97387.25;5053970;28;20266;-58
2021/12/27 05:02:10;;;;;;;2.23;0.40;;;;;;;7.17;100.00;97389.22;5054611;28;20626;-57
2021/12/27 05:04:37;;;;;;;1.17;0.50;;;;;;;7.21;100.00;97392.28;5054512;28;20187;-58
2021/12/27 05:07:04;;;;;;;1.57;0.40;;;;;;;7.24;100.00;97387.59;5054414;28;20195;-58
2021/12/27 05:09:31;;;;;;;0.40;0.30;;;;;;;7.33;100.00;97388.41;5054322;28;20235;-58
2021/12/27 05:11:59;;;;;;;0.80;0.50;;;;;;;7.42;100.00;97391.03;5054166;28;20720;-57
2021/12/27 05:14:26;;;;;;;0.87;0.40;;;;;;;7.39;100.00;97387.78;5054367;28;20545;-59
2021/12/27 05:16:53;;;;;;;1.17;0.50;;;;;;;7.41;100.00;97381.63;5054226;28;20183;-58
2021/12/27 05:19:21;;;;;;;0.80;0.50;;;;;;;7.37;100.00;97379.34;5054298;28;20658;-57
2021/12/27 05:21:48;;;;;;;0.80;0.40;;;;;;;7.36;100.00;97369.94;5053945;28;20203;-58
2021/12/27 05:24:14;;;;;;;2.47;0.50;;;;;;;7.42;100.00;97371.06;5054247;28;20186;-56
2021/12/27 05:26:41;;;;;;;0.73;0.50;;;;;;;7.37;100.00;97375.94;5054145;28;20206;-57
2021/12/27 05:29:12;;;;;;;2.27;0.60;;;;;;;7.29;100.00;97376.72;5054081;28;20656;-57
2021/12/27 05:31:40;;;;;;;0.93;0.50;;;;;;;7.23;100.00;97370.41;5053417;28;20573;-57
2021/12/27 05:34:07;;;;;;;0.57;0.40;;;;;;;7.19;100.00;97366.50;5054048;28;20266;-57
2021/12/27 05:36:34;;;;;;;1.73;0.40;;;;;;;7.15;100.00;97364.38;5053939;28;20191;-57
2021/12/27 05:39:01;;;;;;;0.60;0.50;;;;;;;7.08;100.00;97359.84;5053929;28;20191;-57
2021/12/27 05:41:28;;;;;;;1.13;0.57;;;;;;;7.03;100.00;97353.50;5053335;28;20553;-58
2021/12/27 05:43:55;;;;;;;1.07;0.50;;;;;;;7.02;100.00;97346.69;5053819;28;20195;-54
2021/12/27 05:46:23;;;;;;;1.23;0.30;;;;;;;7.01;100.00;97343.28;5053831;28;20215;-57
2021/12/27 05:48:50;;;;;;;1.43;0.67;;;;;;;7.01;100.00;97337.28;5053778;28;20247;-57
2021/12/27 05:51:16;;;;;;;1.83;0.40;;;;;;;7.01;100.00;97342.47;5052996;28;20246;-58
2021/12/27 05:53:43;;;;;;;0.47;0.30;;;;;;;7.03;100.00;97337.94;5053813;28;20658;-58
2021/12/27 05:56:11;;;;;;;0.60;0.30;;;;;;;7.08;100.00;97336.47;5053571;28;20618;-58
2021/12/27 05:58:38;;;;;;;3.10;0.50;;;;;;;7.14;100.00;97332.44;5053553;28;20184;-57
2021/12/27 06:01:05;;;;;;;0.60;0.37;;;;;;;7.20;100.00;97338.75;5052772;28;20207;-58
2021/12/27 06:03:33;;;;;;;0.40;0.30;;;;;;;7.24;100.00;97332.28;5052466;28;20195;-58
2021/12/27 06:06:00;;;;;;;0.73;0.30;;;;;;;7.24;100.00;97333.09;5053382;28;20184;-57
2021/12/27 06:08:27;;;;;;;3.50;1.97;;;;;;;7.23;100.00;97333.25;5053345;28;20587;-58
2021/12/27 06:10:54;;;;;;;3.13;1.60;;;;;;;7.19;100.00;97340.56;5052427;28;20712;-58
2021/12/27 06:13:20;;;;;;;4.07;1.47;;;;;;;7.15;100.00;97348.81;5053749;28;20206;-58
2021/12/27 06:15:50;;;;;;;1.93;0.97;;;;;;;7.11;100.00;97342.31;5053150;28;20196;-57
2021/12/27 06:18:17;;;;;;;1.53;1.00;;;;;;;7.09;100.00;97342.50;5051890;28;20195;-58
2021/12/27 06:20:45;;;;;;;1.40;1.00;;;;;;;7.07;100.00;97350.41;5052549;28;20207;-58
2021/12/27 06:23:12;;;;;;;3.80;0.90;;;;;;;7.06;100.00;97345.41;5053083;28;20183;-55
2021/12/27 06:25:39;;;;;;;0.83;0.43;;;;;;;7.05;100.00;97344.59;5053033;28;20195;-59
2021/12/27 06:28:05;;;;;;;2.07;0.50;;;;;;;7.06;100.00;97337.63;5052902;28;20245;-58
2021/12/27 06:30:32;;;;;;;3.03;0.47;;;;;;;6.97;100.00;97338.59;5052123;28;20222;-59
2021/12/27 06:32:59;;;;;;;4.30;0.90;;;;;;;6.91;100.00;97334.81;5052873;28;20183;-58
2021/12/27 06:35:26;;;;;;;15.50;3.83;;;;;;;6.90;100.00;97336.63;5052928;28;20187;-59
2021/12/27 06:37:57;;;;;;;20.20;5.43;;;;;;;6.88;100.00;97335.19;5052772;28;20649;-56
2021/12/27 06:40:24;;;;;;;59.63;21.73;;;;;;;6.90;100.00;97330.59;5052062;28;20284;-56
2021/12/27 06:42:51;;;;;;;9.57;3.07;;;;;;;6.90;100.00;97331.44;5052627;28;20542;-59
2021/12/27 06:45:18;;;;;;;8.27;2.10;;;;;;;6.84;100.00;97333.88;5052599;28;20183;-59
2021/12/27 06:47:44;;;;;;;4.40;1.97;;;;;;;6.83;100.00;97335.63;5052842;28;20212;-59
2021/12/27 06:50:12;;;;;;;140.40;64.33;;;;;;;6.82;100.00;97338.41;5051797;28;20203;-58
2021/12/27 06:52:39;;;;;;;46.80;20.30;;;;;;;6.77;100.00;97321.53;5052609;28;20649;-58
2021/12/27 06:55:09;;;;;;;6.47;3.43;;;;;;;6.75;100.00;97320.06;5052394;28;20245;-57
2021/12/27 06:57:36;;;;;;;19.50;7.33;;;;;;;6.73;100.00;97322.00;5052294;28;20190;-58
2021/12/27 07:00:06;;;;;;;14.67;6.40;;;;;;;6.67;100.00;97309.66;5051828;28;20191;-57
2021/12/27 07:02:33;;;;;;;18.00;9.10;;;;;;;6.59;100.00;97313.06;5052553;28;20211;-55
2021/12/27 07:04:59;;;;;;;12.23;8.20;;;;;;;6.51;100.00;97311.22;5052423;28;20198;-59
2021/12/27 07:07:26;;;;;;;11.03;6.00;;;;;;;6.46;100.00;97305.69;5052303;28;20198;-59
2021/12/27 07:09:53;;;;;;;2.73;2.17;;;;;;;6.37;100.00;97306.66;5051440;28;20194;-57
2021/12/27 07:12:21;;;;;;;3.40;1.47;;;;;;;6.24;100.00;97297.56;5051879;28;20219;-59
2021/12/27 07:14:48;;;;;;;1.10;0.83;;;;;;;6.19;100.00;97302.38;5051882;28;20191;-59
2021/12/27 07:17:15;;;;;;;2.70;0.60;;;;;;;6.10;100.00;97292.97;5052271;28;20274;-59
2021/12/27 07:19:43;;;;;;;1.93;0.60;;;;;;;5.97;100.00;97298.50;5051513;28;20187;-58
2021/12/27 07:22:10;;;;;;;1.60;0.50;;;;;;;5.86;100.00;97297.81;5051943;28;20208;-57
2021/12/27 07:24:37;;;;;;;1.63;0.70;;;;;;;5.79;100.00;97296.00;5051948;28;20195;-58
2021/12/27 07:27:04;;;;;;;1.27;0.67;;;;;;;5.80;100.00;97300.22;5052000;28;20183;-59
2021/12/27 07:29:32;;;;;;;1.40;1.20;;;;;;;5.76;100.00;97300.53;5051969;28;20194;-58
2021/12/27 07:31:59;;;;;;;2.80;1.53;;;;;;;5.73;100.00;97300.03;5051654;28;20215;-57
2021/12/27 07:34:27;;;;;;;1.73;1.40;;;;;;;5.74;100.00;97299.06;5051903;28;20661;-59
2021/12/27 07:36:55;;;;;;;2.13;1.40;;;;;;;5.75;100.00;97301.47;5052316;28;20216;-56
2021/12/27 07:39:24;;;;;;;2.47;2.00;;;;;;;5.86;100.00;97304.78;5051746;28;20244;-58
2021/12/27 07:41:51;;;;;;;5.83;2.60;;;;;;;5.94;100.00;97307.41;5051168;28;20203;-59
2021/12/27 07:44:18;;;;;;;4.93;2.40;;;;;;;5.99;100.00;97305.19;5052096;28;20195;-57
2021/12/27 07:46:46;;;;;;;8.33;4.63;;;;;;;6.08;100.00;97307.84;5051749;28;20210;-59
2021/12/27 07:49:15;;;;;;;11.90;9.27;;;;;;;6.17;100.00;97312.09;5051778;28;20203;-59
2021/12/27 07:51:42;;;;;;;5.93;4.13;;;;;;;6.25;100.00;97304.38;5050915;28;20216;-59
2021/12/27 07:54:09;;;;;;;3.03;2.43;;;;;;;6.34;100.00;97307.78;5051863;28;20241;-59
2021/12/27 07:56:37;;;;;;;3.67;2.20;;;;;;;6.41;100.00;97310.53;5051703;28;20179;-59
2021/12/27 07:59:04;;;;;;;3.60;2.17;;;;;;;6.48;100.00;97314.97;5051676;28;20191;-58
2021/12/27 08:01:31;;;;;;;4.10;2.80;;;;;;;6.49;100.00;97315.75;5051294;28;20253;-57
2021/12/27 08:04:00;;;;;;;7.27;4.10;;;;;;;6.61;100.00;97314.50;5051765;28;20186;-56
2021/12/27 08:06:27;;;;;;;10.40;4.60;;;;;;;6.63;100.00;97316.97;5051769;28;20188;-59
2021/12/27 08:08:54;;;;;;;8.87;5.57;;;;;;;6.64;100.00;97319.38;5051618;28;20191;-59
2021/12/27 08:11:21;;;;;;;8.60;4.80;;;;;;;6.65;100.00;97310.63;5050884;28;20585;-57
2021/12/27 08:13:48;;;;;;;7.37;3.60;;;;;;;6.60;100.00;97310.28;5051659;28;20188;-56
2021/12/27 08:16:17;;;;;;;11.30;6.47;;;;;;;6.65;100.00;97307.22;5051527;28;20215;-57
2021/12/27 08:18:46;;;;;;;8.87;5.03;;;;;;;6.53;100.00;97308.50;5051515;28;20696;-55
2021/12/27 08:21:16;;;;;;;11.40;5.13;;;;;;;6.43;100.00;97309.44;5050782;28;20210;-58
2021/12/27 08:23:43;;;;;;;10.17;5.43;;;;;;;6.31;100.00;97308.09;5051080;28;20184;-56
2021/12/27 08:26:10;;;;;;;6.83;3.87;;;;;;;6.22;100.00;97309.84;5051459;28;20218;-57
2021/12/27 08:28:37;;;;;;;9.47;4.50;;;;;;;6.17;100.00;97312.91;5054741;28;20191;-59
2021/12/27 08:31:03;;;;;;;6.53;3.73;;;;;;;6.11;100.00;97320.50;5054477;28;20212;-57
2021/12/27 08:33:30;;;;;;;11.87;5.30;;;;;;;6.07;100.00;97317.38;5055093;28;20282;-59
2021/12/27 08:35:57;;;;;;;10.77;6.20;;;;;;;6.05;100.00;97325.31;5055419;28;20244;-57
2021/12/27 08:38:26;;;;;;;8.90;6.00;;;;;;;6.08;100.00;97325.97;5055101;28;20692;-55
2021/12/27 08:40:52;;;;;;;9.60;5.20;;;;;;;6.03;100.00;97313.47;5054389;28;20287;-59
2021/12/27 08:43:19;;;;;;;8.77;5.37;;;;;;;6.03;100.00;97319.47;5055077;28;20624;-59
2021/12/27 08:45:46;;;;;;;8.27;5.50;;;;;;;6.00;100.00;97316.34;5055014;28;20194;-58
2021/12/27 08:48:13;;;;;;;9.97;5.77;;;;;;;6.06;100.00;97320.94;5054939;28;20187;-59
2021/12/27 08:50:41;;;;;;;7.80;5.03;;;;;;;6.04;100.00;97310.75;5054205;28;20744;-59
2021/12/27 08:53:08;;;;;;;13.03;6.73;;;;;;;6.07;100.00;97314.00;5054721;28;20192;-58
2021/12/27 08:55:37;;;;;;;9.10;4.93;;;;;;;6.14;100.00;97317.59;5054773;28;20709;-60
2021/12/27 08:58:04;;;;;;;18.73;9.73;;;;;;;6.13;100.00;97310.78;5054673;28;20210;-59
2021/12/27 09:00:50;;;;;;;9.83;5.70;;;;;;;6.16;100.00;97306.09;5054384;28;20296;-59
2021/12/27 09:03:17;;;;;;;7.23;4.47;;;;;;;6.17;100.00;97301.72;5054637;28;20187;-59
2021/12/27 09:05:44;;;;;;;7.60;3.00;;;;;;;6.10;100.00;97303.31;5054622;28;20187;-59
2021/12/27 09:08:11;;;;;;;5.57;2.13;;;;;;;6.09;100.00;97299.91;5054436;28;20223;-60
2021/12/27 09:10:39;;;;;;;9.73;5.80;;;;;;;6.05;100.00;97293.41;5053668;28;20768;-59
2021/12/27 09:13:06;;;;;;;13.37;7.40;;;;;;;6.07;100.00;97294.06;5054421;28;20274;-60
2021/12/27 09:15:33;;;;;;;11.60;6.60;;;;;;;6.07;100.00;97285.50;5054440;28;20179;-58
2021/12/27 09:18:00;;;;;;;9.67;5.83;;;;;;;6.12;100.00;97278.06;5054430;28;20210;-59
2021/12/27 09:20:28;;;;;;;6.83;3.90;;;;;;;6.09;100.00;97275.78;5053586;28;20211;-60
2021/12/27 09:22:55;;;;;;;6.27;4.43;;;;;;;6.08;100.00;97266.41;5054579;28;20187;-59
2021/12/27 09:25:22;;;;;;;6.73;3.80;;;;;;;6.07;100.00;97259.59;5054167;28;20271;-59
2021/12/27 09:27:51;;;;;;;6.27;3.90;;;;;;;6.09;100.00;97255.06;5054161;28;20278;-59
2021/12/27 09:30:18;;;;;;;5.47;3.40;;;;;;;6.08;100.00;97263.81;5053462;28;20190;-60
2021/12/27 09:32:45;;;;;;;4.60;2.83;;;;;;;6.07;100.00;97255.19;5054335;28;20300;-59
2021/12/27 09:35:12;;;;;;;5.27;2.23;;;;;;;6.12;100.00;97254.75;5054087;28;20269;-58
2021/12/27 09:37:39;;;;;;;9.10;2.37;;;;;;;6.11;100.00;97253.13;5053837;28;20270;-59
2021/12/27 09:40:07;;;;;;;4.43;2.10;;;;;;;6.18;100.00;97254.13;5051843;28;20195;-59
2021/12/27 09:42:35;;;;;;;5.27;2.20;;;;;;;6.26;100.00;97250.75;5053907;28;20245;-58
2021/12/27 09:45:05;;;;;;;2.83;1.97;;;;;;;6.28;100.00;97247.03;5054047;28;20612;-59
2021/12/27 09:47:32;;;;;;;2.70;1.40;;;;;;;6.32;100.00;97240.56;5053871;28;20807;-59
2021/12/27 09:50:00;;;;;;;4.03;1.20;;;;;;;6.46;100.00;97240.91;5053274;28;20229;-58
2021/12/27 09:52:27;;;;;;;3.77;0.90;;;;;;;6.56;100.00;97235.59;5053494;28;20219;-59
2021/12/27 09:54:54;;;;;;;2.23;0.67;;;;;;;6.57;100.00;97230.22;5053729;28;20603;-59
2021/12/27 09:57:20;;;;;;;1.73;0.80;;;;;;;6.59;100.00;97225.69;5053623;28;20238;-59
2021/12/27 09:59:47;;;;;;;2.17;0.60;;;;;;;6.62;100.00;97227.19;5053034;28;20183;-58
2021/12/27 10:02:15;;;;;;;2.10;0.60;;;;;;;6.63;100.00;97231.38;5053541;28;20202;-57
2021/12/27 10:04:45;;;;;;;1.30;0.67;;;;;;;6.64;100.00;97217.47;5053542;28;20197;-57
2021/12/27 10:07:19;;;;;;;1.07;0.60;;;;;;;6.69;100.00;97216.97;5053400;28;20188;-53
2021/12/27 10:09:52;;;;;;;1.77;0.70;;;;;;;6.78;100.00;97221.19;5052839;28;20191;-62
2021/12/27 10:12:21;;;;;;;2.50;0.80;;;;;;;6.88;100.00;97215.84;5053317;28;20214;-60
2021/12/27 10:14:47;;;;;;;1.00;0.63;;;;;;;6.99;100.00;97218.09;5053420;28;20187;-59
2021/12/27 10:17:15;;;;;;;1.63;0.97;;;;;;;7.16;100.00;97216.31;5053317;28;20226;-55
2021/12/27 10:19:42;;;;;;;6.83;1.10;;;;;;;7.32;100.00;97214.69;5052658;28;20664;-59
2021/12/27 10:22:12;;;;;;;2.10;0.73;;;;;;;7.45;100.00;97214.16;5052993;28;20640;-55
2021/12/27 10:24:39;;;;;;;3.37;1.57;;;;;;;7.62;100.00;97214.91;5053170;28;20187;-57
2021/12/27 10:27:07;;;;;;;1.97;1.50;;;;;;;7.79;100.00;97210.50;5053182;28;20569;-56
2021/12/27 10:29:36;;;;;;;1.10;0.80;;;;;;;7.91;100.00;97198.75;5052630;28;20188;-59
2021/12/27 10:32:05;;;;;;;3.07;0.67;;;;;;;8.06;100.00;97205.81;5052783;28;20214;-57
2021/12/27 10:34:36;;;;;;;2.90;0.90;;;;;;;8.21;100.00;97195.53;5052891;28;20219;-60
2021/12/27 10:37:14;;;;;;;3.10;0.63;;;;;;;8.41;96.30;97207.13;5052992;28;20275;-56
2021/12/27 10:39:46;;;;;;;1.07;0.90;;;;;;;8.56;94.77;97201.16;5052620;28;20194;-58
2021/12/27 10:42:15;;;;;;;0.90;0.40;;;;;;;8.69;93.00;97206.59;5052849;28;20204;-57
2021/12/27 10:44:42;;;;;;;0.80;0.50;;;;;;;8.79;90.32;97205.56;5053208;28;20241;-59
2021/12/27 10:47:38;;;;;;;0.80;0.20;;;;;;;8.84;87.56;97201.47;5052702;28;20581;-57
2021/12/27 10:50:15;;;;;;;2.27;0.60;;;;;;;8.94;88.22;97193.41;5051396;28;20179;-57
2021/12/27 10:52:55;;;;;;;0.80;0.40;;;;;;;8.98;87.15;97194.69;5052636;28;20258;-59
2021/12/27 10:55:24;;;;;;;1.77;0.40;;;;;;;9.26;85.67;97198.50;5051327;28;20227;-56
2021/12/27 10:57:52;;;;;;;2.37;0.47;;;;;;;9.29;83.86;97196.34;5052513;28;20215;-58
2021/12/27 11:00:26;;;;;;;2.33;0.50;;;;;;;9.34;83.27;97197.63;5051853;28;20194;-58
2021/12/27 11:02:54;;;;;;;1.40;0.80;;;;;;;9.54;82.80;97190.88;5052599;28;20183;-54
2021/12/27 11:05:24;;;;;;;3.30;0.37;;;;;;;9.54;82.33;97196.09;5052337;28;20179;-60
2021/12/27 11:07:52;;;;;;;1.47;0.30;;;;;;;9.63;81.12;97185.56;5052660;28;20191;-58
2021/12/27 11:10:20;;;;;;;2.20;0.40;;;;;;;9.72;82.47;97182.72;5051468;28;20224;-58
2021/12/27 11:12:48;;;;;;;2.40;0.60;;;;;;;9.67;82.26;97189.44;5052149;28;20297;-59
2021/12/27 11:15:15;;;;;;;1.23;0.50;;;;;;;9.80;80.10;97175.78;5052243;28;20654;-58
2021/12/27 11:17:43;;;;;;;1.13;0.50;;;;;;;10.06;80.14;97174.50;5052399;28;20262;-58
2021/12/27 11:20:13;;;;;;;0.73;0.47;;;;;;;10.08;79.41;97175.09;5051342;28;20625;-59
2021/12/27 11:22:43;;;;;;;0.73;0.40;;;;;;;9.97;78.96;97168.56;5052515;28;20577;-59
2021/12/27 11:25:22;;;;;;;0.77;0.50;;;;;;;10.18;78.53;97180.81;5052269;28;20187;-58
2021/12/27 11:27:49;;;;;;;1.40;0.80;;;;;;;10.29;78.84;97182.16;5052197;28;20280;-58
2021/12/27 11:30:22;;;;;;;13.10;8.00;;;;;;;9.97;86.74;97190.25;5051395;28;20183;-59
2021/12/27 11:33:12;;;;;;;13.30;7.87;;;;;;;9.49;88.81;97198.44;5051929;28;20209;-58
2021/12/27 11:35:56;;;;;;;12.10;8.17;;;;;;;9.08;92.00;97198.84;5051851;28;20676;-58
2021/12/27 11:38:31;;;;;;;9.70;6.50;;;;;;;8.81;94.06;97214.84;5051635;28;20198;-59